sensor_id;sensor_type;location;lat;lon;timestamp;P1;durP1;ratioP1;P2;durP2;ratioP2
76176;SDS011;64938;47.696;8.066;2023-11-19T00:01:41;2.70;;;2.50;;
76176;SDS011;64938;47.696;8.066;2023-11-19T00:04:06;2.50;;;2.30;;
76176;SDS011;64938;47.696;8.066;2023-11-19T00:06:33;2.57;;;2.37;;
76176;SDS011;64938;47.696;8.066;2023-11-19T00:08:59;5.40;;;2.60;;
76176;SDS011;64938;47.696;8.066;2023-11-19T00:11:25;3.10;;;2.20;;
76176;SDS011;64938;47.696;8.066;2023-11-19T00:13:51;3.10;;;2.50;;
76176;SDS011;64938;47.696;8.066;2023-11-19T00:16:17;2.53;;;2.10;;
76176;SDS011;64938;47.696;8.066;2023-11-19T00:18:43;2.33;;;2.10;;
76176;SDS011;64938;47.696;8.066;2023-11-19T00:21:08;2.37;;;2.13;;
76176;SDS011;64938;47.696;8.066;2023-11-19T00:23:35;2.40;;;2.20;;
76176;SDS011;64938;47.696;8.066;2023-11-19T00:26:01;2.10;;;1.90;;
76176;SDS011;64938;47.696;8.066;2023-11-19T00:28:27;2.33;;;2.13;;
76176;SDS011;64938;47.696;8.066;2023-11-19T00:30:54;3.97;;;2.17;;
76176;SDS011;64938;47.696;8.066;2023-11-19T00:33:20;2.63;;;2.43;;
76176;SDS011;64938;47.696;8.066;2023-11-19T00:35:46;2.27;;;2.10;;
76176;SDS011;64938;47.696;8.066;2023-11-19T00:38:12;2.37;;;2.20;;
76176;SDS011;64938;47.696;8.066;2023-11-19T00:40:38;2.50;;;2.30;;
76176;SDS011;64938;47.696;8.066;2023-11-19T00:43:06;2.60;;;2.40;;
76176;SDS011;64938;47.696;8.066;2023-11-19T00:45:32;2.23;;;2.13;;
76176;SDS011;64938;47.696;8.066;2023-11-19T00:47:58;2.13;;;2.03;;
76176;SDS011;64938;47.696;8.066;2023-11-19T00:50:25;2.30;;;2.10;;
76176;SDS011;64938;47.696;8.066;2023-11-19T00:52:51;2.67;;;2.47;;
76176;SDS011;64938;47.696;8.066;2023-11-19T00:55:17;2.60;;;2.40;;
76176;SDS011;64938;47.696;8.066;2023-11-19T00:57:43;2.40;;;2.20;;
76176;SDS011;64938;47.696;8.066;2023-11-19T01:00:18;2.57;;;2.37;;
76176;SDS011;64938;47.696;8.066;2023-11-19T01:02:45;2.93;;;2.73;;
76176;SDS011;64938;47.696;8.066;2023-11-19T01:05:11;2.97;;;2.77;;
76176;SDS011;64938;47.696;8.066;2023-11-19T01:07:41;2.87;;;2.53;;
76176;SDS011;64938;47.696;8.066;2023-11-19T01:10:07;3.10;;;2.90;;
76176;SDS011;64938;47.696;8.066;2023-11-19T01:12:33;3.63;;;3.20;;
76176;SDS011;64938;47.696;8.066;2023-11-19T01:14:59;8.60;;;3.13;;
76176;SDS011;64938;47.696;8.066;2023-11-19T01:17:26;2.67;;;2.47;;
76176;SDS011;64938;47.696;8.066;2023-11-19T01:19:52;2.93;;;2.73;;
76176;SDS011;64938;47.696;8.066;2023-11-19T01:22:18;3.00;;;2.80;;
76176;SDS011;64938;47.696;8.066;2023-11-19T01:24:44;2.80;;;2.60;;
76176;SDS011;64938;47.696;8.066;2023-11-19T01:27:10;2.40;;;2.30;;
76176;SDS011;64938;47.696;8.066;2023-11-19T01:29:36;2.20;;;2.10;;
76176;SDS011;64938;47.696;8.066;2023-11-19T01:32:03;2.10;;;1.90;;
76176;SDS011;64938;47.696;8.066;2023-11-19T01:34:30;3.30;;;2.30;;
76176;SDS011;64938;47.696;8.066;2023-11-19T01:36:56;2.17;;;2.07;;
76176;SDS011;64938;47.696;8.066;2023-11-19T01:39:21;2.50;;;2.30;;
76176;SDS011;64938;47.696;8.066;2023-11-19T01:41:48;2.83;;;2.00;;
76176;SDS011;64938;47.696;8.066;2023-11-19T01:44:14;2.30;;;2.20;;
76176;SDS011;64938;47.696;8.066;2023-11-19T01:46:41;2.30;;;2.20;;
76176;SDS011;64938;47.696;8.066;2023-11-19T01:49:07;2.53;;;2.10;;
76176;SDS011;64938;47.696;8.066;2023-11-19T01:51:34;2.27;;;2.07;;
76176;SDS011;64938;47.696;8.066;2023-11-19T01:54:00;1.80;;;1.70;;
76176;SDS011;64938;47.696;8.066;2023-11-19T01:56:27;2.10;;;1.90;;
76176;SDS011;64938;47.696;8.066;2023-11-19T01:58:54;1.67;;;1.57;;
76176;SDS011;64938;47.696;8.066;2023-11-19T02:01:21;1.70;;;1.60;;
76176;SDS011;64938;47.696;8.066;2023-11-19T02:03:47;1.50;;;1.40;;
76176;SDS011;64938;47.696;8.066;2023-11-19T02:06:14;2.07;;;1.87;;
76176;SDS011;64938;47.696;8.066;2023-11-19T02:08:41;2.20;;;2.00;;
76176;SDS011;64938;47.696;8.066;2023-11-19T02:11:07;1.70;;;1.60;;
76176;SDS011;64938;47.696;8.066;2023-11-19T02:13:33;1.60;;;1.50;;
76176;SDS011;64938;47.696;8.066;2023-11-19T02:16:02;1.60;;;1.50;;
76176;SDS011;64938;47.696;8.066;2023-11-19T02:18:32;1.60;;;1.50;;
76176;SDS011;64938;47.696;8.066;2023-11-19T02:20:58;1.70;;;1.60;;
76176;SDS011;64938;47.696;8.066;2023-11-19T02:23:26;1.60;;;1.50;;
76176;SDS011;64938;47.696;8.066;2023-11-19T02:25:59;1.33;;;1.23;;
76176;SDS011;64938;47.696;8.066;2023-11-19T02:28:48;1.40;;;1.23;;
76176;SDS011;64938;47.696;8.066;2023-11-19T02:31:14;1.10;;;1.00;;
76176;SDS011;64938;47.696;8.066;2023-11-19T02:33:39;1.33;;;1.07;;
76176;SDS011;64938;47.696;8.066;2023-11-19T02:36:06;0.97;;;0.97;;
76176;SDS011;64938;47.696;8.066;2023-11-19T02:38:33;0.80;;;0.80;;
76176;SDS011;64938;47.696;8.066;2023-11-19T02:41:01;0.70;;;0.70;;
76176;SDS011;64938;47.696;8.066;2023-11-19T02:43:31;0.77;;;0.77;;
76176;SDS011;64938;47.696;8.066;2023-11-19T02:46:02;0.70;;;0.70;;
76176;SDS011;64938;47.696;8.066;2023-11-19T02:48:33;1.10;;;0.80;;
76176;SDS011;64938;47.696;8.066;2023-11-19T02:51:02;0.70;;;0.70;;
76176;SDS011;64938;47.696;8.066;2023-11-19T02:53:29;0.80;;;0.80;;
76176;SDS011;64938;47.696;8.066;2023-11-19T02:55:57;0.83;;;0.60;;
76176;SDS011;64938;47.696;8.066;2023-11-19T02:58:31;0.50;;;0.50;;
76176;SDS011;64938;47.696;8.066;2023-11-19T03:00:57;0.50;;;0.47;;
76176;SDS011;64938;47.696;8.066;2023-11-19T03:03:25;0.50;;;0.50;;
76176;SDS011;64938;47.696;8.066;2023-11-19T03:05:56;0.50;;;0.50;;
76176;SDS011;64938;47.696;8.066;2023-11-19T03:08:22;0.50;;;0.40;;
76176;SDS011;64938;47.696;8.066;2023-11-19T03:10:49;0.40;;;0.40;;
76176;SDS011;64938;47.696;8.066;2023-11-19T03:13:15;0.50;;;0.50;;
76176;SDS011;64938;47.696;8.066;2023-11-19T03:15:42;0.50;;;0.50;;
76176;SDS011;64938;47.696;8.066;2023-11-19T03:18:08;0.57;;;0.47;;
76176;SDS011;64938;47.696;8.066;2023-11-19T03:20:37;0.60;;;0.40;;
76176;SDS011;64938;47.696;8.066;2023-11-19T03:23:03;0.40;;;0.30;;
76176;SDS011;64938;47.696;8.066;2023-11-19T03:25:30;0.50;;;0.47;;
76176;SDS011;64938;47.696;8.066;2023-11-19T03:27:59;0.40;;;0.40;;
76176;SDS011;64938;47.696;8.066;2023-11-19T03:30:27;0.40;;;0.40;;
76176;SDS011;64938;47.696;8.066;2023-11-19T03:32:54;0.50;;;0.50;;
76176;SDS011;64938;47.696;8.066;2023-11-19T03:35:21;0.50;;;0.40;;
76176;SDS011;64938;47.696;8.066;2023-11-19T03:37:48;0.40;;;0.40;;
76176;SDS011;64938;47.696;8.066;2023-11-19T03:40:14;0.50;;;0.50;;
76176;SDS011;64938;47.696;8.066;2023-11-19T03:42:43;0.40;;;0.30;;
76176;SDS011;64938;47.696;8.066;2023-11-19T03:45:10;0.40;;;0.40;;
76176;SDS011;64938;47.696;8.066;2023-11-19T03:47:36;0.60;;;0.40;;
76176;SDS011;64938;47.696;8.066;2023-11-19T03:50:02;0.40;;;0.40;;
76176;SDS011;64938;47.696;8.066;2023-11-19T03:52:29;0.40;;;0.40;;
76176;SDS011;64938;47.696;8.066;2023-11-19T03:54:56;0.40;;;0.30;;
76176;SDS011;64938;47.696;8.066;2023-11-19T03:57:22;0.40;;;0.40;;
76176;SDS011;64938;47.696;8.066;2023-11-19T03:59:49;0.50;;;0.40;;
76176;SDS011;64938;47.696;8.066;2023-11-19T04:02:15;0.40;;;0.40;;
76176;SDS011;64938;47.696;8.066;2023-11-19T04:04:42;0.40;;;0.30;;
76176;SDS011;64938;47.696;8.066;2023-11-19T04:07:08;0.97;;;0.40;;
76176;SDS011;64938;47.696;8.066;2023-11-19T04:09:35;0.50;;;0.50;;
76176;SDS011;64938;47.696;8.066;2023-11-19T04:12:02;0.50;;;0.50;;
76176;SDS011;64938;47.696;8.066;2023-11-19T04:14:29;0.50;;;0.50;;
76176;SDS011;64938;47.696;8.066;2023-11-19T04:16:55;0.60;;;0.50;;
76176;SDS011;64938;47.696;8.066;2023-11-19T04:19:21;0.50;;;0.50;;
76176;SDS011;64938;47.696;8.066;2023-11-19T04:21:47;0.50;;;0.50;;
76176;SDS011;64938;47.696;8.066;2023-11-19T04:24:13;0.70;;;0.50;;
76176;SDS011;64938;47.696;8.066;2023-11-19T04:26:40;14.60;;;1.63;;
76176;SDS011;64938;47.696;8.066;2023-11-19T04:29:08;2.50;;;1.00;;
76176;SDS011;64938;47.696;8.066;2023-11-19T04:31:34;13.77;;;1.80;;
76176;SDS011;64938;47.696;8.066;2023-11-19T04:34:01;1.30;;;0.80;;
76176;SDS011;64938;47.696;8.066;2023-11-19T04:36:27;1.10;;;0.67;;
76176;SDS011;64938;47.696;8.066;2023-11-19T04:38:55;0.57;;;0.57;;
76176;SDS011;64938;47.696;8.066;2023-11-19T04:41:21;0.70;;;0.57;;
76176;SDS011;64938;47.696;8.066;2023-11-19T04:43:48;0.60;;;0.60;;
76176;SDS011;64938;47.696;8.066;2023-11-19T04:46:14;0.50;;;0.50;;
76176;SDS011;64938;47.696;8.066;2023-11-19T04:48:42;2.90;;;0.60;;
76176;SDS011;64938;47.696;8.066;2023-11-19T04:51:08;0.60;;;0.60;;
76176;SDS011;64938;47.696;8.066;2023-11-19T04:53:35;0.70;;;0.50;;
76176;SDS011;64938;47.696;8.066;2023-11-19T04:56:01;0.50;;;0.50;;
76176;SDS011;64938;47.696;8.066;2023-11-19T04:58:34;3.07;;;0.70;;
76176;SDS011;64938;47.696;8.066;2023-11-19T05:01:01;0.40;;;0.40;;
76176;SDS011;64938;47.696;8.066;2023-11-19T05:03:29;0.50;;;0.40;;
76176;SDS011;64938;47.696;8.066;2023-11-19T05:05:57;0.50;;;0.43;;
76176;SDS011;64938;47.696;8.066;2023-11-19T05:08:23;0.60;;;0.50;;
76176;SDS011;64938;47.696;8.066;2023-11-19T05:10:49;0.47;;;0.47;;
76176;SDS011;64938;47.696;8.066;2023-11-19T05:13:15;1.13;;;0.63;;
76176;SDS011;64938;47.696;8.066;2023-11-19T05:15:42;4.17;;;1.10;;
76176;SDS011;64938;47.696;8.066;2023-11-19T05:18:08;27.93;;;2.30;;
76176;SDS011;64938;47.696;8.066;2023-11-19T05:20:35;66.43;;;5.20;;
76176;SDS011;64938;47.696;8.066;2023-11-19T05:23:01;75.93;;;5.40;;
76176;SDS011;64938;47.696;8.066;2023-11-19T05:25:27;83.90;;;7.27;;
76176;SDS011;64938;47.696;8.066;2023-11-19T05:27:53;72.60;;;6.43;;
76176;SDS011;64938;47.696;8.066;2023-11-19T05:30:20;14.23;;;1.70;;
76176;SDS011;64938;47.696;8.066;2023-11-19T05:32:46;23.33;;;2.47;;
76176;SDS011;64938;47.696;8.066;2023-11-19T05:35:12;1.27;;;0.77;;
76176;SDS011;64938;47.696;8.066;2023-11-19T05:37:39;0.80;;;0.80;;
76176;SDS011;64938;47.696;8.066;2023-11-19T05:40:05;0.80;;;0.60;;
76176;SDS011;64938;47.696;8.066;2023-11-19T05:42:39;0.70;;;0.70;;
76176;SDS011;64938;47.696;8.066;2023-11-19T05:45:06;0.57;;;0.57;;
76176;SDS011;64938;47.696;8.066;2023-11-19T05:47:34;0.70;;;0.70;;
76176;SDS011;64938;47.696;8.066;2023-11-19T05:50:00;0.70;;;0.70;;
76176;SDS011;64938;47.696;8.066;2023-11-19T05:52:26;0.87;;;0.80;;
76176;SDS011;64938;47.696;8.066;2023-11-19T05:54:53;1.27;;;0.60;;
76176;SDS011;64938;47.696;8.066;2023-11-19T05:57:19;1.60;;;1.30;;
76176;SDS011;64938;47.696;8.066;2023-11-19T05:59:49;0.70;;;0.70;;
76176;SDS011;64938;47.696;8.066;2023-11-19T06:02:15;0.70;;;0.70;;
76176;SDS011;64938;47.696;8.066;2023-11-19T06:04:41;0.60;;;0.50;;
76176;SDS011;64938;47.696;8.066;2023-11-19T06:07:09;0.60;;;0.60;;
76176;SDS011;64938;47.696;8.066;2023-11-19T06:09:35;2.20;;;0.67;;
76176;SDS011;64938;47.696;8.066;2023-11-19T06:12:01;4.47;;;0.97;;
76176;SDS011;64938;47.696;8.066;2023-11-19T06:14:27;1.80;;;0.70;;
76176;SDS011;64938;47.696;8.066;2023-11-19T06:16:53;0.70;;;0.70;;
76176;SDS011;64938;47.696;8.066;2023-11-19T06:19:19;0.60;;;0.60;;
76176;SDS011;64938;47.696;8.066;2023-11-19T06:21:45;0.70;;;0.70;;
76176;SDS011;64938;47.696;8.066;2023-11-19T06:24:11;0.50;;;0.50;;
76176;SDS011;64938;47.696;8.066;2023-11-19T06:26:36;0.60;;;0.60;;
76176;SDS011;64938;47.696;8.066;2023-11-19T06:29:02;0.60;;;0.60;;
76176;SDS011;64938;47.696;8.066;2023-11-19T06:31:28;0.57;;;0.57;;
76176;SDS011;64938;47.696;8.066;2023-11-19T06:33:54;0.60;;;0.60;;
76176;SDS011;64938;47.696;8.066;2023-11-19T06:36:21;0.60;;;0.50;;
76176;SDS011;64938;47.696;8.066;2023-11-19T06:38:47;0.40;;;0.40;;
76176;SDS011;64938;47.696;8.066;2023-11-19T06:41:13;0.70;;;0.50;;
76176;SDS011;64938;47.696;8.066;2023-11-19T06:43:40;1.23;;;0.40;;
76176;SDS011;64938;47.696;8.066;2023-11-19T06:46:13;0.50;;;0.40;;
76176;SDS011;64938;47.696;8.066;2023-11-19T06:48:40;0.40;;;0.30;;
76176;SDS011;64938;47.696;8.066;2023-11-19T06:51:08;0.50;;;0.40;;
76176;SDS011;64938;47.696;8.066;2023-11-19T06:53:34;0.40;;;0.30;;
76176;SDS011;64938;47.696;8.066;2023-11-19T06:56:00;0.40;;;0.30;;
76176;SDS011;64938;47.696;8.066;2023-11-19T06:58:26;0.40;;;0.30;;
76176;SDS011;64938;47.696;8.066;2023-11-19T07:00:52;0.40;;;0.30;;
76176;SDS011;64938;47.696;8.066;2023-11-19T07:03:18;1.10;;;1.00;;
76176;SDS011;64938;47.696;8.066;2023-11-19T07:05:45;0.50;;;0.50;;
76176;SDS011;64938;47.696;8.066;2023-11-19T07:08:11;0.50;;;0.40;;
76176;SDS011;64938;47.696;8.066;2023-11-19T07:10:37;0.40;;;0.40;;
76176;SDS011;64938;47.696;8.066;2023-11-19T07:13:03;0.50;;;0.40;;
76176;SDS011;64938;47.696;8.066;2023-11-19T07:15:31;0.50;;;0.50;;
76176;SDS011;64938;47.696;8.066;2023-11-19T07:17:58;1.23;;;0.40;;
76176;SDS011;64938;47.696;8.066;2023-11-19T07:20:25;0.40;;;0.40;;
76176;SDS011;64938;47.696;8.066;2023-11-19T07:22:56;0.40;;;0.33;;
76176;SDS011;64938;47.696;8.066;2023-11-19T07:25:22;0.40;;;0.40;;
76176;SDS011;64938;47.696;8.066;2023-11-19T07:27:48;0.40;;;0.37;;
76176;SDS011;64938;47.696;8.066;2023-11-19T07:30:14;0.90;;;0.40;;
76176;SDS011;64938;47.696;8.066;2023-11-19T07:32:43;0.50;;;0.50;;
76176;SDS011;64938;47.696;8.066;2023-11-19T07:35:09;0.80;;;0.80;;
76176;SDS011;64938;47.696;8.066;2023-11-19T07:37:36;0.93;;;0.40;;
76176;SDS011;64938;47.696;8.066;2023-11-19T07:40:02;0.50;;;0.50;;
76176;SDS011;64938;47.696;8.066;2023-11-19T07:42:28;0.50;;;0.40;;
76176;SDS011;64938;47.696;8.066;2023-11-19T07:44:55;0.73;;;0.40;;
76176;SDS011;64938;47.696;8.066;2023-11-19T07:47:22;0.60;;;0.60;;
76176;SDS011;64938;47.696;8.066;2023-11-19T07:49:49;1.57;;;0.70;;
76176;SDS011;64938;47.696;8.066;2023-11-19T07:52:16;6.20;;;5.60;;
76176;SDS011;64938;47.696;8.066;2023-11-19T07:54:42;23.90;;;18.40;;
76176;SDS011;64938;47.696;8.066;2023-11-19T07:57:08;0.70;;;0.70;;
76176;SDS011;64938;47.696;8.066;2023-11-19T07:59:34;0.60;;;0.60;;
76176;SDS011;64938;47.696;8.066;2023-11-19T08:02:00;0.60;;;0.60;;
76176;SDS011;64938;47.696;8.066;2023-11-19T08:04:27;1.30;;;1.20;;
76176;SDS011;64938;47.696;8.066;2023-11-19T08:06:53;0.83;;;0.70;;
76176;SDS011;64938;47.696;8.066;2023-11-19T08:09:19;0.80;;;0.80;;
76176;SDS011;64938;47.696;8.066;2023-11-19T08:11:44;0.60;;;0.60;;
76176;SDS011;64938;47.696;8.066;2023-11-19T08:14:11;1.23;;;1.13;;
76176;SDS011;64938;47.696;8.066;2023-11-19T08:16:38;9.10;;;8.40;;
76176;SDS011;64938;47.696;8.066;2023-11-19T08:19:04;0.87;;;0.87;;
76176;SDS011;64938;47.696;8.066;2023-11-19T08:21:30;2.13;;;1.90;;
76176;SDS011;64938;47.696;8.066;2023-11-19T08:23:57;0.90;;;0.90;;
76176;SDS011;64938;47.696;8.066;2023-11-19T08:26:23;3.47;;;3.27;;
76176;SDS011;64938;47.696;8.066;2023-11-19T08:28:49;1.50;;;1.10;;
76176;SDS011;64938;47.696;8.066;2023-11-19T08:31:14;3.50;;;3.20;;
76176;SDS011;64938;47.696;8.066;2023-11-19T08:33:41;2.27;;;1.70;;
76176;SDS011;64938;47.696;8.066;2023-11-19T08:36:07;1.17;;;1.03;;
76176;SDS011;64938;47.696;8.066;2023-11-19T08:38:33;2.33;;;2.00;;
76176;SDS011;64938;47.696;8.066;2023-11-19T08:40:59;2.43;;;2.23;;
76176;SDS011;64938;47.696;8.066;2023-11-19T08:43:26;0.70;;;0.70;;
76176;SDS011;64938;47.696;8.066;2023-11-19T08:45:52;1.03;;;0.90;;
76176;SDS011;64938;47.696;8.066;2023-11-19T08:48:18;1.00;;;0.80;;
76176;SDS011;64938;47.696;8.066;2023-11-19T08:50:45;1.20;;;0.63;;
76176;SDS011;64938;47.696;8.066;2023-11-19T08:53:11;0.70;;;0.70;;
76176;SDS011;64938;47.696;8.066;2023-11-19T08:55:38;0.70;;;0.70;;
76176;SDS011;64938;47.696;8.066;2023-11-19T08:58:04;0.80;;;0.80;;
76176;SDS011;64938;47.696;8.066;2023-11-19T09:00:30;0.80;;;0.80;;
76176;SDS011;64938;47.696;8.066;2023-11-19T09:02:57;0.70;;;0.50;;
76176;SDS011;64938;47.696;8.066;2023-11-19T09:05:23;0.87;;;0.70;;
76176;SDS011;64938;47.696;8.066;2023-11-19T09:07:49;2.60;;;0.87;;
76176;SDS011;64938;47.696;8.066;2023-11-19T09:10:21;0.70;;;0.70;;
76176;SDS011;64938;47.696;8.066;2023-11-19T09:12:47;0.70;;;0.70;;
76176;SDS011;64938;47.696;8.066;2023-11-19T09:15:13;0.60;;;0.60;;
76176;SDS011;64938;47.696;8.066;2023-11-19T09:17:42;1.00;;;0.80;;
76176;SDS011;64938;47.696;8.066;2023-11-19T09:20:09;0.70;;;0.70;;
76176;SDS011;64938;47.696;8.066;2023-11-19T09:22:37;0.50;;;0.50;;
76176;SDS011;64938;47.696;8.066;2023-11-19T09:25:03;0.50;;;0.50;;
76176;SDS011;64938;47.696;8.066;2023-11-19T09:27:30;1.63;;;0.87;;
76176;SDS011;64938;47.696;8.066;2023-11-19T09:29:56;0.80;;;0.80;;
76176;SDS011;64938;47.696;8.066;2023-11-19T09:32:24;1.93;;;0.70;;
76176;SDS011;64938;47.696;8.066;2023-11-19T09:34:50;2.00;;;0.93;;
76176;SDS011;64938;47.696;8.066;2023-11-19T09:37:16;2.50;;;1.10;;
76176;SDS011;64938;47.696;8.066;2023-11-19T09:39:43;1.13;;;1.10;;
76176;SDS011;64938;47.696;8.066;2023-11-19T09:42:09;1.63;;;1.10;;
76176;SDS011;64938;47.696;8.066;2023-11-19T09:44:39;2.63;;;1.10;;
76176;SDS011;64938;47.696;8.066;2023-11-19T09:47:06;1.60;;;0.97;;
76176;SDS011;64938;47.696;8.066;2023-11-19T09:49:32;0.80;;;0.80;;
76176;SDS011;64938;47.696;8.066;2023-11-19T09:51:59;0.60;;;0.60;;
76176;SDS011;64938;47.696;8.066;2023-11-19T09:54:28;0.60;;;0.60;;
76176;SDS011;64938;47.696;8.066;2023-11-19T09:56:55;0.50;;;0.50;;
76176;SDS011;64938;47.696;8.066;2023-11-19T09:59:27;1.00;;;0.50;;
76176;SDS011;64938;47.696;8.066;2023-11-19T10:01:57;0.90;;;0.80;;
76176;SDS011;64938;47.696;8.066;2023-11-19T10:04:23;0.63;;;0.60;;
76176;SDS011;64938;47.696;8.066;2023-11-19T10:06:50;1.73;;;0.73;;
76176;SDS011;64938;47.696;8.066;2023-11-19T10:09:17;0.40;;;0.40;;
76176;SDS011;64938;47.696;8.066;2023-11-19T10:11:44;1.77;;;0.90;;
76176;SDS011;64938;47.696;8.066;2023-11-19T10:14:10;1.33;;;0.60;;
76176;SDS011;64938;47.696;8.066;2023-11-19T10:16:36;1.00;;;0.97;;
76176;SDS011;64938;47.696;8.066;2023-11-19T10:19:03;1.10;;;1.00;;
76176;SDS011;64938;47.696;8.066;2023-11-19T10:21:32;5.60;;;1.20;;
76176;SDS011;64938;47.696;8.066;2023-11-19T10:23:58;2.70;;;2.50;;
76176;SDS011;64938;47.696;8.066;2023-11-19T10:26:25;1.10;;;1.10;;
76176;SDS011;64938;47.696;8.066;2023-11-19T10:28:52;5.83;;;1.10;;
76176;SDS011;64938;47.696;8.066;2023-11-19T10:31:19;16.83;;;1.83;;
76176;SDS011;64938;47.696;8.066;2023-11-19T10:33:50;0.90;;;0.80;;
76176;SDS011;64938;47.696;8.066;2023-11-19T10:36:16;0.70;;;0.70;;
76176;SDS011;64938;47.696;8.066;2023-11-19T10:38:58;1.20;;;1.10;;
76176;SDS011;64938;47.696;8.066;2023-11-19T10:41:32;0.80;;;0.80;;
76176;SDS011;64938;47.696;8.066;2023-11-19T10:43:59;2.10;;;0.90;;
76176;SDS011;64938;47.696;8.066;2023-11-19T10:46:41;1.27;;;0.87;;
76176;SDS011;64938;47.696;8.066;2023-11-19T10:49:09;0.70;;;0.70;;
76176;SDS011;64938;47.696;8.066;2023-11-19T10:51:35;0.63;;;0.50;;
76176;SDS011;64938;47.696;8.066;2023-11-19T10:54:02;0.67;;;0.67;;
76176;SDS011;64938;47.696;8.066;2023-11-19T10:56:33;1.07;;;0.63;;
76176;SDS011;64938;47.696;8.066;2023-11-19T10:59:00;0.60;;;0.60;;
76176;SDS011;64938;47.696;8.066;2023-11-19T11:01:31;0.80;;;0.80;;
76176;SDS011;64938;47.696;8.066;2023-11-19T11:04:03;1.40;;;0.73;;
76176;SDS011;64938;47.696;8.066;2023-11-19T11:06:30;1.00;;;0.80;;
76176;SDS011;64938;47.696;8.066;2023-11-19T11:08:56;1.10;;;1.10;;
76176;SDS011;64938;47.696;8.066;2023-11-19T11:11:22;0.83;;;0.83;;
76176;SDS011;64938;47.696;8.066;2023-11-19T11:13:49;1.77;;;0.90;;
76176;SDS011;64938;47.696;8.066;2023-11-19T11:16:18;0.87;;;0.80;;
76176;SDS011;64938;47.696;8.066;2023-11-19T11:18:45;2.30;;;0.90;;
76176;SDS011;64938;47.696;8.066;2023-11-19T11:21:15;2.50;;;1.13;;
76176;SDS011;64938;47.696;8.066;2023-11-19T11:23:52;1.37;;;1.00;;
76176;SDS011;64938;47.696;8.066;2023-11-19T11:26:48;1.17;;;1.10;;
76176;SDS011;64938;47.696;8.066;2023-11-19T11:29:22;5.50;;;1.20;;
76176;SDS011;64938;47.696;8.066;2023-11-19T11:32:16;1.30;;;1.10;;
76176;SDS011;64938;47.696;8.066;2023-11-19T11:34:53;10.23;;;2.53;;
76176;SDS011;64938;47.696;8.066;2023-11-19T11:37:37;2.60;;;1.97;;
76176;SDS011;64938;47.696;8.066;2023-11-19T11:40:09;1.90;;;1.80;;
76176;SDS011;64938;47.696;8.066;2023-11-19T11:42:41;2.17;;;1.87;;
76176;SDS011;64938;47.696;8.066;2023-11-19T11:45:08;4.93;;;2.10;;
76176;SDS011;64938;47.696;8.066;2023-11-19T11:50:10;2.17;;;2.07;;
76176;SDS011;64938;47.696;8.066;2023-11-19T11:55:26;1.33;;;1.23;;
76176;SDS011;64938;47.696;8.066;2023-11-19T11:57:53;1.00;;;1.00;;
76176;SDS011;64938;47.696;8.066;2023-11-19T12:00:21;0.77;;;0.77;;
76176;SDS011;64938;47.696;8.066;2023-11-19T12:02:51;1.00;;;1.00;;
76176;SDS011;64938;47.696;8.066;2023-11-19T12:05:17;0.80;;;0.80;;
76176;SDS011;64938;47.696;8.066;2023-11-19T12:07:54;0.60;;;0.60;;
76176;SDS011;64938;47.696;8.066;2023-11-19T12:10:20;1.00;;;0.60;;
76176;SDS011;64938;47.696;8.066;2023-11-19T12:12:47;0.50;;;0.50;;
76176;SDS011;64938;47.696;8.066;2023-11-19T12:15:13;0.60;;;0.60;;
76176;SDS011;64938;47.696;8.066;2023-11-19T12:17:42;0.60;;;0.60;;
76176;SDS011;64938;47.696;8.066;2023-11-19T12:20:14;0.40;;;0.40;;
76176;SDS011;64938;47.696;8.066;2023-11-19T12:22:42;0.50;;;0.40;;
76176;SDS011;64938;47.696;8.066;2023-11-19T12:25:09;0.53;;;0.50;;
76176;SDS011;64938;47.696;8.066;2023-11-19T12:27:36;0.50;;;0.50;;
76176;SDS011;64938;47.696;8.066;2023-11-19T12:30:03;0.60;;;0.60;;
76176;SDS011;64938;47.696;8.066;2023-11-19T12:32:45;0.60;;;0.60;;
76176;SDS011;64938;47.696;8.066;2023-11-19T12:35:11;0.40;;;0.40;;
76176;SDS011;64938;47.696;8.066;2023-11-19T12:40:24;0.47;;;0.40;;
76176;SDS011;64938;47.696;8.066;2023-11-19T12:42:51;0.50;;;0.50;;
76176;SDS011;64938;47.696;8.066;2023-11-19T12:45:18;0.50;;;0.50;;
76176;SDS011;64938;47.696;8.066;2023-11-19T12:47:46;0.60;;;0.60;;
76176;SDS011;64938;47.696;8.066;2023-11-19T12:50:13;0.80;;;0.80;;
76176;SDS011;64938;47.696;8.066;2023-11-19T12:52:39;1.43;;;1.00;;
76176;SDS011;64938;47.696;8.066;2023-11-19T12:55:23;1.53;;;1.43;;
76176;SDS011;64938;47.696;8.066;2023-11-19T12:57:55;1.30;;;1.20;;
76176;SDS011;64938;47.696;8.066;2023-11-19T13:00:22;1.33;;;1.23;;
76176;SDS011;64938;47.696;8.066;2023-11-19T13:02:49;1.43;;;1.33;;
76176;SDS011;64938;47.696;8.066;2023-11-19T13:05:21;1.97;;;1.87;;
76176;SDS011;64938;47.696;8.066;2023-11-19T13:07:47;2.40;;;1.93;;
76176;SDS011;64938;47.696;8.066;2023-11-19T13:10:13;1.80;;;1.70;;
76176;SDS011;64938;47.696;8.066;2023-11-19T13:12:41;1.63;;;1.47;;
76176;SDS011;64938;47.696;8.066;2023-11-19T13:15:25;2.00;;;1.90;;
76176;SDS011;64938;47.696;8.066;2023-11-19T13:17:57;2.10;;;1.90;;
76176;SDS011;64938;47.696;8.066;2023-11-19T13:20:23;1.63;;;1.53;;
76176;SDS011;64938;47.696;8.066;2023-11-19T13:22:53;1.70;;;1.60;;
76176;SDS011;64938;47.696;8.066;2023-11-19T13:25:23;1.53;;;1.43;;
76176;SDS011;64938;47.696;8.066;2023-11-19T13:27:49;1.60;;;1.50;;
76176;SDS011;64938;47.696;8.066;2023-11-19T13:30:16;2.10;;;2.00;;
76176;SDS011;64938;47.696;8.066;2023-11-19T13:32:42;1.70;;;1.50;;
76176;SDS011;64938;47.696;8.066;2023-11-19T13:35:09;2.30;;;1.43;;
76176;SDS011;64938;47.696;8.066;2023-11-19T13:37:35;1.50;;;1.40;;
76176;SDS011;64938;47.696;8.066;2023-11-19T13:40:02;2.60;;;1.30;;
76176;SDS011;64938;47.696;8.066;2023-11-19T13:42:28;1.67;;;1.57;;
76176;SDS011;64938;47.696;8.066;2023-11-19T13:44:54;2.20;;;1.50;;
76176;SDS011;64938;47.696;8.066;2023-11-19T13:47:21;1.90;;;1.43;;
76176;SDS011;64938;47.696;8.066;2023-11-19T13:49:49;2.20;;;1.20;;
76176;SDS011;64938;47.696;8.066;2023-11-19T13:52:15;1.40;;;1.30;;
76176;SDS011;64938;47.696;8.066;2023-11-19T13:54:51;1.70;;;1.50;;
76176;SDS011;64938;47.696;8.066;2023-11-19T13:57:17;1.93;;;1.50;;
76176;SDS011;64938;47.696;8.066;2023-11-19T13:59:43;3.27;;;1.70;;
76176;SDS011;64938;47.696;8.066;2023-11-19T14:02:13;1.67;;;1.57;;
76176;SDS011;64938;47.696;8.066;2023-11-19T14:04:39;1.90;;;1.80;;
76176;SDS011;64938;47.696;8.066;2023-11-19T14:07:06;1.90;;;1.80;;
76176;SDS011;64938;47.696;8.066;2023-11-19T14:09:35;3.23;;;1.87;;
76176;SDS011;64938;47.696;8.066;2023-11-19T14:12:01;2.20;;;1.63;;
76176;SDS011;64938;47.696;8.066;2023-11-19T14:14:28;2.17;;;1.97;;
76176;SDS011;64938;47.696;8.066;2023-11-19T14:16:54;2.30;;;1.60;;
76176;SDS011;64938;47.696;8.066;2023-11-19T14:19:20;2.73;;;1.97;;
76176;SDS011;64938;47.696;8.066;2023-11-19T14:21:46;2.60;;;2.30;;
76176;SDS011;64938;47.696;8.066;2023-11-19T14:24:12;2.00;;;1.80;;
76176;SDS011;64938;47.696;8.066;2023-11-19T14:26:38;2.03;;;1.60;;
76176;SDS011;64938;47.696;8.066;2023-11-19T14:29:04;2.33;;;2.10;;
76176;SDS011;64938;47.696;8.066;2023-11-19T14:31:30;2.67;;;1.80;;
76176;SDS011;64938;47.696;8.066;2023-11-19T14:33:57;2.67;;;2.13;;
76176;SDS011;64938;47.696;8.066;2023-11-19T14:36:24;3.17;;;2.00;;
76176;SDS011;64938;47.696;8.066;2023-11-19T14:38:49;2.33;;;2.13;;
76176;SDS011;64938;47.696;8.066;2023-11-19T14:41:16;3.10;;;2.63;;
76176;SDS011;64938;47.696;8.066;2023-11-19T14:43:41;3.27;;;2.37;;
76176;SDS011;64938;47.696;8.066;2023-11-19T14:46:08;2.87;;;2.57;;
76176;SDS011;64938;47.696;8.066;2023-11-19T14:48:34;6.50;;;3.10;;
76176;SDS011;64938;47.696;8.066;2023-11-19T14:51:00;2.70;;;2.30;;
76176;SDS011;64938;47.696;8.066;2023-11-19T14:53:28;2.40;;;2.20;;
76176;SDS011;64938;47.696;8.066;2023-11-19T14:55:54;2.23;;;2.03;;
76176;SDS011;64938;47.696;8.066;2023-11-19T14:58:20;4.17;;;2.50;;